Air Navigation Services of Czech Republic
Airport: LKPR Updated:  22.04.2021 16:30:26  UTC
 METAR LKPR 22.04. 16:30 ...
METAR LKPR 221630Z 33013KT 9999 FEW047 08/M04 Q1020 NOSIG RMK REG QNH 1015=
 TAF LKPR 22.04. 11:00 ...
TAF LKPR 221100Z 2212/2318 30008KT CAVOK      TEMPO 2212/2221 32014G26KT      TEMPO 2309/2318 33016G28KT=